Time,TemperatureF,DewpointF,PressureIn,WindDirection,WindDirectionDegrees,WindSpeedMPH,WindSpeedGustMPH,Humidity,HourlyPrecipIn,Conditions,Clouds,dailyrainin,SoftwareType,DateUTC
2013-02-09 00:00:00,26.0,24.0,29.74,NNW,346,10.0,19.0,97,-99.99,,,-99.99,,2013-02-09 05:00:00,
2013-02-09 00:22:00,26.0,24.0,29.74,NNW,346,10.0,19.0,97,-99.99,,,-99.99,,2013-02-09 05:22:00,
2013-02-09 00:32:00,26.0,24.0,29.74,NNW,346,10.0,19.0,97,-99.99,,,-99.99,,2013-02-09 05:32:00,
2013-02-09 00:42:00,26.0,24.0,29.74,NNW,346,10.0,19.0,97,-99.99,,,-99.99,,2013-02-09 05:42:00,
2013-02-09 00:52:00,26.0,24.0,29.74,NNW,346,10.0,19.0,97,-99.99,,,-99.99,,2013-02-09 05:52:00,
2013-02-09 01:00:00,26.0,24.0,29.74,NNE,17,7.0,17.0,96,-99.99,,,-99.99,,2013-02-09 06:00:00,
2013-02-09 01:22:00,26.0,24.0,29.74,NNE,17,7.0,17.0,96,-99.99,,,-99.99,,2013-02-09 06:22:00,
2013-02-09 01:32:00,26.0,24.0,29.74,NNE,17,7.0,17.0,96,-99.99,,,-99.99,,2013-02-09 06:32:00,
2013-02-09 01:42:00,26.0,24.0,29.74,NNE,17,7.0,17.0,96,-99.99,,,-99.99,,2013-02-09 06:42:00,
2013-02-09 01:52:00,26.0,24.0,29.74,NNE,17,7.0,17.0,96,-99.99,,,-99.99,,2013-02-09 06:52:00,
2013-02-09 02:00:00,27.0,25.0,29.77,NNW,331,3.0,10.0,96,-99.99,,,-99.99,,2013-02-09 07:00:00,
2013-02-09 02:32:00,27.0,25.0,29.77,NNW,331,3.0,10.0,96,-99.99,,,-99.99,,2013-02-09 07:32:00,
2013-02-09 02:42:00,27.0,25.0,29.77,NNW,331,3.0,10.0,96,-99.99,,,-99.99,,2013-02-09 07:42:00,
2013-02-09 02:52:00,27.0,25.0,29.77,NNW,331,3.0,10.0,96,-99.99,,,-99.99,,2013-02-09 07:52:00,
2013-02-09 03:00:00,27.0,26.0,29.77,NNE,21,5.0,10.0,96,-99.99,,,-99.99,,2013-02-09 08:00:00,
2013-02-09 03:22:00,27.0,26.0,29.77,NNE,21,5.0,10.0,96,-99.99,,,-99.99,,2013-02-09 08:22:00,
2013-02-09 03:32:00,27.0,26.0,29.77,NNE,21,5.0,10.0,96,-99.99,,,-99.99,,2013-02-09 08:32:00,
2013-02-09 03:42:00,27.0,26.0,29.77,NNE,21,5.0,10.0,96,-99.99,,,-99.99,,2013-02-09 08:42:00,
2013-02-09 03:52:00,27.0,26.0,29.77,NNE,21,5.0,10.0,96,-99.99,,,-99.99,,2013-02-09 08:52:00,
2013-02-09 04:00:00,27.0,25.0,29.80,North,349,5.0,17.0,96,-99.99,,,-99.99,,2013-02-09 09:00:00,
2013-02-09 04:22:00,27.0,25.0,29.80,North,349,5.0,17.0,96,-99.99,,,-99.99,,2013-02-09 09:22:00,
2013-02-09 04:32:00,27.0,25.0,29.80,North,349,5.0,17.0,96,-99.99,,,-99.99,,2013-02-09 09:32:00,
2013-02-09 04:42:00,27.0,25.0,29.80,North,349,5.0,17.0,96,-99.99,,,-99.99,,2013-02-09 09:42:00,
2013-02-09 04:52:00,27.0,25.0,29.80,North,349,5.0,17.0,96,-99.99,,,-99.99,,2013-02-09 09:52:00,
2013-02-09 05:00:00,26.0,24.0,29.80,NW,318,5.0,11.0,96,-99.99,,,-99.99,,2013-02-09 10:00:00,
2013-02-09 05:32:00,26.0,24.0,29.80,NW,318,5.0,11.0,96,-99.99,,,-99.99,,2013-02-09 10:32:00,
2013-02-09 05:42:00,26.0,24.0,29.80,NW,318,5.0,11.0,96,-99.99,,,-99.99,,2013-02-09 10:42:00,
2013-02-09 05:52:00,26.0,24.0,29.80,NW,318,5.0,11.0,96,-99.99,,,-99.99,,2013-02-09 10:52:00,
2013-02-09 06:00:00,26.0,24.0,29.83,NW,304,9.0,15.0,96,-99.99,,,-99.99,,2013-02-09 11:00:00,
2013-02-09 06:22:00,26.0,24.0,29.83,NW,304,9.0,15.0,96,-99.99,,,-99.99,,2013-02-09 11:22:00,
2013-02-09 06:32:00,26.0,24.0,29.83,NW,304,9.0,15.0,96,-99.99,,,-99.99,,2013-02-09 11:32:00,
2013-02-09 06:42:00,26.0,24.0,29.83,NW,304,9.0,15.0,96,-99.99,,,-99.99,,2013-02-09 11:42:00,
2013-02-09 06:52:00,26.0,24.0,29.83,NW,304,9.0,15.0,96,-99.99,,,-99.99,,2013-02-09 11:52:00,
2013-02-09 07:00:00,27.0,25.0,29.83,North,9,5.0,17.0,96,-99.99,,,-99.99,,2013-02-09 12:00:00,
2013-02-09 07:22:00,27.0,25.0,29.83,North,9,5.0,17.0,96,-99.99,,,-99.99,,2013-02-09 12:22:00,
2013-02-09 07:32:00,27.0,25.0,29.83,North,9,5.0,17.0,96,-99.99,,,-99.99,,2013-02-09 12:32:00,
2013-02-09 07:42:00,27.0,25.0,29.83,North,9,5.0,17.0,96,-99.99,,,-99.99,,2013-02-09 12:42:00,
2013-02-09 07:53:00,27.0,25.0,29.83,North,9,5.0,17.0,96,-99.99,,,-99.99,,2013-02-09 12:53:00,
2013-02-09 08:00:00,26.0,23.0,29.88,West,280,9.0,23.0,93,-99.99,,,-99.99,,2013-02-09 13:00:00,
2013-02-09 08:22:00,26.0,23.0,29.88,West,280,9.0,23.0,93,-99.99,,,-99.99,,2013-02-09 13:22:00,
2013-02-09 08:32:00,26.0,23.0,29.88,West,280,9.0,23.0,93,-99.99,,,-99.99,,2013-02-09 13:32:00,
2013-02-09 08:42:00,26.0,23.0,29.88,West,280,9.0,23.0,93,-99.99,,,-99.99,,2013-02-09 13:42:00,
2013-02-09 08:52:00,26.0,23.0,29.88,West,280,9.0,23.0,93,-99.99,,,-99.99,,2013-02-09 13:52:00,
2013-02-09 09:00:00,25.0,21.0,29.91,NW,326,14.0,29.0,88,-99.99,,,-99.99,,2013-02-09 14:00:00,
2013-02-09 09:22:00,25.0,21.0,29.91,NW,326,14.0,29.0,88,-99.99,,,-99.99,,2013-02-09 14:22:00,
2013-02-09 09:32:00,25.0,21.0,29.91,NW,326,14.0,29.0,88,-99.99,,,-99.99,,2013-02-09 14:32:00,
2013-02-09 09:42:00,25.0,21.0,29.91,NW,326,14.0,29.0,88,-99.99,,,-99.99,,2013-02-09 14:42:00,
2013-02-09 09:52:00,25.0,21.0,29.91,NW,326,14.0,29.0,88,-99.99,,,-99.99,,2013-02-09 14:52:00,
2013-02-09 10:00:00,25.0,18.0,29.94,NNW,334,9.0,23.0,78,-99.99,,,-99.99,,2013-02-09 15:00:00,
2013-02-09 10:32:00,25.0,18.0,29.94,NNW,334,9.0,23.0,78,-99.99,,,-99.99,,2013-02-09 15:32:00,
2013-02-09 10:42:00,25.0,18.0,29.94,NNW,334,9.0,23.0,78,-99.99,,,-99.99,,2013-02-09 15:42:00,
2013-02-09 10:52:00,25.0,18.0,29.94,NNW,334,9.0,23.0,78,-99.99,,,-99.99,,2013-02-09 15:52:00,
2013-02-09 11:00:00,27.0,15.0,29.97,NW,325,8.0,24.0,63,-99.99,,,-99.99,,2013-02-09 16:00:00,
2013-02-09 11:22:00,27.0,15.0,29.97,NW,325,8.0,24.0,63,-99.99,,,-99.99,,2013-02-09 16:22:00,
2013-02-09 11:32:00,27.0,15.0,29.97,NW,325,8.0,24.0,63,-99.99,,,-99.99,,2013-02-09 16:32:00,
2013-02-09 11:42:00,27.0,15.0,29.97,NW,325,8.0,24.0,63,-99.99,,,-99.99,,2013-02-09 16:42:00,
2013-02-09 11:52:00,27.0,15.0,29.97,NW,325,8.0,24.0,63,-99.99,,,-99.99,,2013-02-09 16:52:00,
2013-02-09 12:00:00,29.0,14.0,30.00,NNW,335,16.0,27.0,55,-99.99,,,-99.99,,2013-02-09 17:00:00,
2013-02-09 12:22:00,29.0,14.0,30.00,NNW,335,16.0,27.0,55,-99.99,,,-99.99,,2013-02-09 17:22:00,
2013-02-09 12:32:00,29.0,14.0,30.00,NNW,335,16.0,27.0,55,-99.99,,,-99.99,,2013-02-09 17:32:00,
2013-02-09 12:42:00,29.0,14.0,30.00,NNW,335,16.0,27.0,55,-99.99,,,-99.99,,2013-02-09 17:42:00,
2013-02-09 12:52:00,29.0,14.0,30.00,NNW,335,16.0,27.0,55,-99.99,,,-99.99,,2013-02-09 17:52:00,
2013-02-09 13:00:00,31.0,12.0,30.00,NW,323,13.0,26.0,47,-99.99,,,-99.99,,2013-02-09 18:00:00,
2013-02-09 13:23:00,31.0,12.0,30.00,NW,323,13.0,26.0,47,-99.99,,,-99.99,,2013-02-09 18:23:00,
2013-02-09 13:32:00,31.0,12.0,30.00,NW,323,13.0,26.0,47,-99.99,,,-99.99,,2013-02-09 18:32:00,
2013-02-09 13:42:00,31.0,12.0,30.00,NW,323,13.0,26.0,47,-99.99,,,-99.99,,2013-02-09 18:42:00,
2013-02-09 13:52:00,31.0,12.0,30.00,NW,323,13.0,26.0,47,-99.99,,,-99.99,,2013-02-09 18:52:00,
2013-02-09 14:00:00,32.0,11.0,30.00,NW,326,12.0,25.0,40,-99.99,,,-99.99,,2013-02-09 19:00:00,
2013-02-09 14:22:00,32.0,11.0,30.00,NW,326,12.0,25.0,40,-99.99,,,-99.99,,2013-02-09 19:22:00,
2013-02-09 14:32:00,32.0,11.0,30.00,NW,326,12.0,25.0,40,-99.99,,,-99.99,,2013-02-09 19:32:00,
2013-02-09 14:42:00,32.0,11.0,30.00,NW,326,12.0,25.0,40,-99.99,,,-99.99,,2013-02-09 19:42:00,
2013-02-09 14:52:00,32.0,11.0,30.00,NW,326,12.0,25.0,40,-99.99,,,-99.99,,2013-02-09 19:52:00,
2013-02-09 15:00:00,32.0,6.0,30.03,NW,315,16.0,27.0,34,-99.99,,,-99.99,,2013-02-09 20:00:00,
2013-02-09 15:22:00,32.0,6.0,30.03,NW,315,16.0,27.0,34,-99.99,,,-99.99,,2013-02-09 20:22:00,
2013-02-09 15:32:00,32.0,6.0,30.03,NW,315,16.0,27.0,34,-99.99,,,-99.99,,2013-02-09 20:32:00,
2013-02-09 15:42:00,32.0,6.0,30.03,NW,315,16.0,27.0,34,-99.99,,,-99.99,,2013-02-09 20:42:00,
2013-02-09 15:52:00,32.0,6.0,30.03,NW,315,16.0,27.0,34,-99.99,,,-99.99,,2013-02-09 20:52:00,
2013-02-09 16:00:00,32.0,3.0,30.06,NW,315,11.0,26.0,29,-99.99,,,-99.99,,2013-02-09 21:00:00,
2013-02-09 16:22:00,32.0,3.0,30.06,NW,315,11.0,26.0,29,-99.99,,,-99.99,,2013-02-09 21:22:00,
2013-02-09 16:32:00,32.0,3.0,30.06,NW,315,11.0,26.0,29,-99.99,,,-99.99,,2013-02-09 21:32:00,
2013-02-09 16:42:00,32.0,3.0,30.06,NW,315,11.0,26.0,29,-99.99,,,-99.99,,2013-02-09 21:42:00,
2013-02-09 16:52:00,32.0,3.0,30.06,NW,315,11.0,26.0,29,-99.99,,,-99.99,,2013-02-09 21:52:00,
2013-02-09 17:00:00,30.0,2.0,30.12,NW,324,10.0,25.0,30,-99.99,,,-99.99,,2013-02-09 22:00:00,
2013-02-09 17:22:00,30.0,2.0,30.12,NW,324,10.0,25.0,30,-99.99,,,-99.99,,2013-02-09 22:22:00,
2013-02-09 17:32:00,30.0,2.0,30.12,NW,324,10.0,25.0,30,-99.99,,,-99.99,,2013-02-09 22:32:00,
2013-02-09 17:42:00,30.0,2.0,30.12,NW,324,10.0,25.0,30,-99.99,,,-99.99,,2013-02-09 22:42:00,
2013-02-09 17:52:00,30.0,2.0,30.12,NW,324,10.0,25.0,30,-99.99,,,-99.99,,2013-02-09 22:52:00,
2013-02-09 18:00:00,29.0,1.0,30.15,NNE,14,10.0,25.0,30,-99.99,,,-99.99,,2013-02-09 23:00:00,
2013-02-09 18:22:00,29.0,1.0,30.15,NNE,14,10.0,25.0,30,-99.99,,,-99.99,,2013-02-09 23:22:00,
2013-02-09 18:32:00,29.0,1.0,30.15,NNE,14,10.0,25.0,30,-99.99,,,-99.99,,2013-02-09 23:32:00,
2013-02-09 18:42:00,29.0,1.0,30.15,NNE,14,10.0,25.0,30,-99.99,,,-99.99,,2013-02-09 23:42:00,
2013-02-09 18:52:00,29.0,1.0,30.15,NNE,14,10.0,25.0,30,-99.99,,,-99.99,,2013-02-09 23:52:00,
2013-02-09 19:00:00,27.0,1.0,30.18,North,4,11.0,22.0,33,-99.99,,,-99.99,,2013-02-10 00:00:00,
2013-02-09 19:32:00,27.0,1.0,30.18,North,4,11.0,22.0,33,-99.99,,,-99.99,,2013-02-10 00:32:00,
2013-02-09 19:42:00,27.0,1.0,30.18,North,4,11.0,22.0,33,-99.99,,,-99.99,,2013-02-10 00:42:00,
2013-02-09 19:52:00,27.0,1.0,30.18,North,4,11.0,22.0,33,-99.99,,,-99.99,,2013-02-10 00:52:00,
2013-02-09 20:00:00,25.0,3.0,30.21,NW,321,10.0,18.0,39,-99.99,,,-99.99,,2013-02-10 01:00:00,
2013-02-09 20:22:00,25.0,3.0,30.21,NW,321,10.0,18.0,39,-99.99,,,-99.99,,2013-02-10 01:22:00,
2013-02-09 20:32:00,25.0,3.0,30.21,NW,321,10.0,18.0,39,-99.99,,,-99.99,,2013-02-10 01:32:00,
2013-02-09 20:42:00,25.0,3.0,30.21,NW,321,10.0,18.0,39,-99.99,,,-99.99,,2013-02-10 01:42:00,
2013-02-09 20:52:00,25.0,3.0,30.21,NW,321,10.0,18.0,39,-99.99,,,-99.99,,2013-02-10 01:52:00,
2013-02-09 21:00:00,24.0,2.0,30.24,NNW,328,6.0,18.0,39,-99.99,,,-99.99,,2013-02-10 02:00:00,
2013-02-09 21:22:00,24.0,2.0,30.24,NNW,328,6.0,18.0,39,-99.99,,,-99.99,,2013-02-10 02:22:00,
2013-02-09 21:32:00,24.0,2.0,30.24,NNW,328,6.0,18.0,39,-99.99,,,-99.99,,2013-02-10 02:32:00,
2013-02-09 21:42:00,24.0,2.0,30.24,NNW,328,6.0,18.0,39,-99.99,,,-99.99,,2013-02-10 02:42:00,
2013-02-09 21:52:00,24.0,2.0,30.24,NNW,328,6.0,18.0,39,-99.99,,,-99.99,,2013-02-10 02:52:00,
2013-02-09 22:00:00,23.0,2.0,30.27,NW,318,6.0,16.0,42,-99.99,,,-99.99,,2013-02-10 03:00:00,
2013-02-09 22:22:00,23.0,2.0,30.27,NW,318,6.0,16.0,42,-99.99,,,-99.99,,2013-02-10 03:22:00,
2013-02-09 22:32:00,23.0,2.0,30.27,NW,318,6.0,16.0,42,-99.99,,,-99.99,,2013-02-10 03:32:00,
2013-02-09 22:42:00,23.0,2.0,30.27,NW,318,6.0,16.0,42,-99.99,,,-99.99,,2013-02-10 03:42:00,
2013-02-09 22:52:00,23.0,2.0,30.27,NW,318,6.0,16.0,42,-99.99,,,-99.99,,2013-02-10 03:52:00,
2013-02-09 23:00:00,22.0,3.0,30.30,NW,318,4.0,15.0,46,-99.99,,,-99.99,,2013-02-10 04:00:00,
2013-02-09 23:22:00,22.0,3.0,30.30,NW,318,4.0,15.0,46,-99.99,,,-99.99,,2013-02-10 04:22:00,
2013-02-09 23:32:00,22.0,3.0,30.30,NW,318,4.0,15.0,46,-99.99,,,-99.99,,2013-02-10 04:32:00,
2013-02-09 23:42:00,22.0,3.0,30.30,NW,318,4.0,15.0,46,-99.99,,,-99.99,,2013-02-10 04:42:00,
2013-02-09 23:52:00,22.0,3.0,30.30,NW,318,4.0,15.0,46,-99.99,,,-99.99,,2013-02-10 04:52:00,